Thomson Dream — 9HA2381 — position and weather

sailwx.info

Track history (hours):
 
Tides and Currents Weather Stations Pressure Air Temp Water Temp Dewpoint Dewpoint Depression Visibility Wind Speed Wind Dir Waves Ship Positions

Thomson Dream

Last reported at 2014-Oct-31 23:33 UTC. Time now 2014-Nov-01 00:17 UTC.
Position N 40°05' E 002°24'.

Length 243 m; draft 7.6 m.

Type: Ship. MMSI: 248480975.

Date/timePositionNaut miles runAvg speedWind from/ knotsBaromVisibWave heightAir tempDewpointWater temp
2014-Oct-31 23:33N 40°05' E 002°24'1616.4
2014-Oct-31 22:34N 40°20' E 002°31'1716.5
2014-Oct-31 21:33N 40°36' E 002°38'1616.3
2014-Oct-31 20:33N 40°52' E 002°44'1716.7
2014-Oct-31 19:33N 41°08' E 002°50'1817.2
2014-Oct-31 18:30N 41°25' E 002°57'1715.7
2014-Oct-31 17:27N 41°41' E 003°03'9 9.4
2014-Oct-31 16:28N 41°50' E 003°06'1 0.3
2014-Oct-31 13:22N 41°51' E 003°07'0 0.0
2014-Oct-31 07:21N 41°51' E 003°07'10 8.3
2014-Oct-31 06:05N 41°51' E 003°21'1810.9
2014-Oct-31 04:26N 41°53' E 003°45'7615.7
2014-Oct-30 23:33N 42°08' E 005°26'1916.8
2014-Oct-30 22:25N 42°12' E 005°51'1815.9
2014-Oct-30 21:18N 42°16' E 006°15'3516.1
2014-Oct-30 19:08N 42°23' E 007°01'2816.3
2014-Oct-30 17:25N 42°28' E 007°38'93 5.9
2014-Oct-30 01:33N 43°02' E 009°36'3716.0
2014-Oct-29 23:12N 42°37' E 010°14'914.3
2014-Oct-29 22:33N 42°32' E 010°25'  
2014-Oct-27 14:31N 40°56' E 009°35'3 3.1
2014-Oct-27 13:31N 40°55' E 009°31'0 0.0
2014-Oct-27 10:31N 40°55' E 009°31'0 0.0
2014-Oct-27 09:31N 40°55' E 009°31'0 0.0
2014-Oct-27 06:20N 40°55' E 009°31'3 3.4
2014-Oct-27 05:33N 40°55' E 009°35'14211.7
2014-Oct-26 17:26N 40°29' E 006°31'7610.4
2014-Oct-26 10:06N 39°55' E 005°01'3710.5
2014-Oct-26 06:33N 39°37' E 004°19'1511.5
2014-Oct-26 05:16N 39°30' E 004°02'810.7
2014-Oct-26 04:33N 39°26' E 003°54'1110.8
2014-Oct-26 03:33N 39°21' E 003°41'1110.8
2014-Oct-26 02:33N 39°16' E 003°29'1110.6
2014-Oct-26 01:33N 39°11' E 003°17'1110.9
2014-Oct-26 00:33N 39°06' E 003°04'1010.3
2014-Oct-25 23:33N 39°05' E 002°51'1010.5
2014-Oct-25 22:33N 39°15' E 002°46'1110.8
2014-Oct-25 21:33N 39°25' E 002°41'9 8.6
2014-Oct-25 20:32N 39°33' E 002°38'0 0.0
2014-Oct-25 19:32N 39°33' E 002°38'0 0.0
2014-Oct-25 18:32N 39°33' E 002°38'0 0.0
2014-Oct-25 15:24N 39°33' E 002°38'46 2.9
2014-Oct-24 23:33N 38°57' E 002°01'1616.3
2014-Oct-24 22:33N 38°44' E 001°48'1616.2
2014-Oct-24 21:33N 38°33' E 001°33'1616.2
2014-Oct-24 20:33N 38°24' E 001°15'1616.2
2014-Oct-24 19:33N 38°16' E 000°58'1616.4
2014-Oct-24 18:33N 38°07' E 000°41'1616.1
2014-Oct-24 17:34N 37°58' E 000°24'1716.4
2014-Oct-24 16:33N 37°49' E 000°06'1615.8
2014-Oct-24 15:33N 37°39' W 000°10'1514.8
2014-Oct-24 14:33N 37°32' W 000°27'1414.4
2014-Oct-24 13:33N 37°31' W 000°44'13 1.6
2014-Oct-24 05:31N 37°36' W 000°59'8 7.1
2014-Oct-24 04:25N 37°29' W 001°04'2411.4
2014-Oct-24 02:19N 37°09' W 001°21'199 7.3
2014-Oct-22 23:04N 36°00' W 005°14'917.8
2014-Oct-22 22:34N 35°59' W 005°24'  
Track history (hours):
 
Tides and Currents Weather Stations Pressure Air Temp Water Temp Dewpoint Dewpoint Depression Visibility Wind Speed Wind Dir Waves Ship Positions

Thomson Dream

Last reported at 2014-Oct-31 23:33 UTC. Time now 2014-Nov-01 00:17 UTC.
Position N 40°05' E 002°24'.

Length 243 m; draft 7.6 m.

Type: Ship. MMSI: 248480975.

Date/timePositionNaut miles runAvg speedWind from/ knotsBaromVisibWave heightAir tempDewpointWater temp
2014-Oct-31 23:33N 40°05' E 002°24'1616.4
2014-Oct-31 22:34N 40°20' E 002°31'1716.5
2014-Oct-31 21:33N 40°36' E 002°38'1616.3
2014-Oct-31 20:33N 40°52' E 002°44'1716.7
2014-Oct-31 19:33N 41°08' E 002°50'1817.2
2014-Oct-31 18:30N 41°25' E 002°57'1715.7
2014-Oct-31 17:27N 41°41' E 003°03'9 9.4
2014-Oct-31 16:28N 41°50' E 003°06'1 0.3
2014-Oct-31 13:22N 41°51' E 003°07'0 0.0
2014-Oct-31 07:21N 41°51' E 003°07'10 8.3
2014-Oct-31 06:05N 41°51' E 003°21'1810.9
2014-Oct-31 04:26N 41°53' E 003°45'7615.7
2014-Oct-30 23:33N 42°08' E 005°26'1916.8
2014-Oct-30 22:25N 42°12' E 005°51'1815.9
2014-Oct-30 21:18N 42°16' E 006°15'3516.1
2014-Oct-30 19:08N 42°23' E 007°01'2816.3
2014-Oct-30 17:25N 42°28' E 007°38'93 5.9
2014-Oct-30 01:33N 43°02' E 009°36'3716.0
2014-Oct-29 23:12N 42°37' E 010°14'914.3
2014-Oct-29 22:33N 42°32' E 010°25'  
2014-Oct-27 14:31N 40°56' E 009°35'3 3.1
2014-Oct-27 13:31N 40°55' E 009°31'0 0.0
2014-Oct-27 10:31N 40°55' E 009°31'0 0.0
2014-Oct-27 09:31N 40°55' E 009°31'0 0.0
2014-Oct-27 06:20N 40°55' E 009°31'3 3.4
2014-Oct-27 05:33N 40°55' E 009°35'14211.7
2014-Oct-26 17:26N 40°29' E 006°31'7610.4
2014-Oct-26 10:06N 39°55' E 005°01'3710.5
2014-Oct-26 06:33N 39°37' E 004°19'1511.5
2014-Oct-26 05:16N 39°30' E 004°02'810.7
2014-Oct-26 04:33N 39°26' E 003°54'1110.8
2014-Oct-26 03:33N 39°21' E 003°41'1110.8
2014-Oct-26 02:33N 39°16' E 003°29'1110.6
2014-Oct-26 01:33N 39°11' E 003°17'1110.9
2014-Oct-26 00:33N 39°06' E 003°04'1010.3
2014-Oct-25 23:33N 39°05' E 002°51'1010.5
2014-Oct-25 22:33N 39°15' E 002°46'1110.8
2014-Oct-25 21:33N 39°25' E 002°41'9 8.6
2014-Oct-25 20:32N 39°33' E 002°38'0 0.0
2014-Oct-25 19:32N 39°33' E 002°38'0 0.0
2014-Oct-25 18:32N 39°33' E 002°38'0 0.0
2014-Oct-25 15:24N 39°33' E 002°38'46 2.9
2014-Oct-24 23:33N 38°57' E 002°01'1616.3
2014-Oct-24 22:33N 38°44' E 001°48'1616.2
2014-Oct-24 21:33N 38°33' E 001°33'1616.2
2014-Oct-24 20:33N 38°24' E 001°15'1616.2
2014-Oct-24 19:33N 38°16' E 000°58'1616.4
2014-Oct-24 18:33N 38°07' E 000°41'1616.1
2014-Oct-24 17:34N 37°58' E 000°24'1716.4
2014-Oct-24 16:33N 37°49' E 000°06'1615.8
2014-Oct-24 15:33N 37°39' W 000°10'1514.8
2014-Oct-24 14:33N 37°32' W 000°27'1414.4
2014-Oct-24 13:33N 37°31' W 000°44'13 1.6
2014-Oct-24 05:31N 37°36' W 000°59'8 7.1
2014-Oct-24 04:25N 37°29' W 001°04'2411.4
2014-Oct-24 02:19N 37°09' W 001°21'199 7.3
2014-Oct-22 23:04N 36°00' W 005°14'917.8
2014-Oct-22 22:34N 35°59' W 005°24'  

Dump ship's entire track history